createdAt,value
2023-01-07T00:01:26.068Z,5.45
2023-01-07T00:04:31.116Z,5.68
2023-01-07T00:07:34.851Z,5.71
2023-01-07T00:10:38.519Z,5.71
2023-01-07T00:13:42.190Z,5.98
2023-01-07T00:16:45.864Z,5.97
2023-01-07T00:19:50.851Z,6.00
2023-01-07T00:22:54.501Z,6.16
2023-01-07T00:26:04.257Z,6.16
2023-01-07T00:29:09.086Z,6.21
2023-01-07T00:32:12.669Z,6.29
2023-01-07T00:35:23.075Z,6.34
2023-01-07T00:38:26.661Z,6.43
2023-01-07T00:41:30.456Z,6.68
2023-01-07T00:44:35.323Z,6.65
2023-01-07T00:47:38.933Z,6.64
2023-01-07T00:50:44.069Z,6.66
2023-01-07T00:53:48.381Z,6.62
2023-01-07T00:56:51.999Z,6.61
2023-01-07T00:59:55.616Z,6.69
2023-01-07T01:03:00.438Z,6.76
2023-01-07T01:06:08.326Z,6.88
2023-01-07T01:09:12.285Z,6.93
2023-01-07T01:12:15.906Z,6.91
2023-01-07T01:15:19.620Z,6.90
2023-01-07T01:18:23.216Z,6.91
2023-01-07T01:21:28.167Z,7.02
2023-01-07T01:24:32.014Z,7.09
2023-01-07T01:27:35.910Z,7.25
2023-01-07T01:30:39.526Z,7.15
2023-01-07T01:33:43.135Z,7.00
2023-01-07T01:36:48.056Z,7.02
2023-01-07T01:39:51.695Z,6.97
2023-01-07T01:42:55.351Z,6.91
2023-01-07T01:46:03.348Z,6.97
2023-01-07T01:49:19.651Z,7.00
2023-01-07T01:52:35.409Z,7.03
2023-01-07T01:55:45.543Z,7.01
2023-01-07T01:58:56.351Z,7.14
2023-01-07T02:02:00.228Z,7.19
2023-01-07T02:05:05.759Z,7.19
2023-01-07T02:08:11.413Z,7.22
2023-01-07T02:11:37.089Z,7.22
2023-01-07T02:15:12.166Z,7.27
2023-01-07T02:18:45.276Z,7.32
2023-01-07T02:22:02.731Z,7.37
2023-01-07T02:26:06.179Z,7.39
2023-01-07T02:29:57.041Z,7.43
2023-01-07T02:33:22.622Z,7.42
2023-01-07T02:36:40.959Z,7.47
2023-01-07T02:39:59.599Z,7.47
2023-01-07T02:43:17.013Z,7.49
2023-01-07T02:46:28.668Z,7.53
2023-01-07T02:49:33.686Z,7.69
2023-01-07T02:52:38.252Z,7.66
2023-01-07T02:55:59.124Z,7.65
2023-01-07T02:59:36.072Z,7.66
2023-01-07T03:03:13.474Z,7.64
2023-01-07T03:06:42.395Z,7.66
2023-01-07T03:09:58.201Z,7.72
2023-01-07T03:13:07.760Z,7.77
2023-01-07T03:16:20.816Z,7.76
2023-01-07T03:19:31.771Z,7.81
2023-01-07T03:22:38.755Z,7.86
2023-01-07T03:25:49.278Z,7.88
2023-01-07T03:28:55.142Z,7.87
2023-01-07T03:32:08.200Z,7.97
2023-01-07T03:35:12.733Z,8.00
2023-01-07T03:38:22.870Z,7.99
2023-01-07T03:41:43.943Z,7.95
2023-01-07T03:44:47.639Z,7.98
2023-01-07T03:47:54.223Z,8.03
2023-01-07T03:50:57.929Z,8.03
2023-01-07T03:54:02.960Z,8.05
2023-01-07T03:57:06.692Z,8.03
2023-01-07T04:00:14.236Z,8.04
2023-01-07T04:03:17.920Z,8.04
2023-01-07T04:06:21.485Z,8.06
2023-01-07T04:09:26.542Z,8.04
2023-01-07T04:12:30.163Z,8.04
2023-01-07T04:15:33.851Z,8.07
2023-01-07T04:18:37.611Z,8.07
2023-01-07T04:21:41.164Z,8.13
2023-01-07T04:24:46.171Z,8.10
2023-01-07T04:27:49.905Z,8.13
2023-01-07T04:30:53.849Z,8.12
2023-01-07T04:33:57.512Z,8.22
2023-01-07T04:37:01.189Z,8.19
2023-01-07T04:40:07.900Z,8.18
2023-01-07T04:43:12.722Z,8.32
2023-01-07T04:46:16.488Z,8.26
2023-01-07T04:49:20.281Z,8.28
2023-01-07T04:52:23.956Z,8.26
2023-01-07T04:55:29.018Z,8.30
2023-01-07T04:58:32.904Z,8.26
2023-01-07T05:01:36.648Z,8.28
2023-01-07T05:04:40.517Z,8.29
2023-01-07T05:07:44.238Z,8.30
2023-01-07T05:10:50.721Z,8.29
2023-01-07T05:13:54.421Z,8.28
2023-01-07T05:16:58.281Z,8.33
2023-01-07T05:20:02.582Z,8.35
2023-01-07T05:23:07.464Z,8.37
2023-01-07T05:26:12.505Z,8.33
2023-01-07T05:29:16.173Z,8.34
2023-01-07T05:32:19.802Z,8.38
2023-01-07T05:35:23.377Z,8.37
2023-01-07T05:38:27.036Z,8.36
2023-01-07T05:41:32.027Z,8.33
2023-01-07T05:44:35.649Z,8.37
2023-01-07T05:47:39.242Z,8.36
2023-01-07T05:50:43.370Z,8.33
2023-01-07T05:53:47.105Z,8.33
2023-01-07T05:56:52.101Z,8.40
2023-01-07T05:59:55.802Z,8.44
2023-01-07T06:02:59.418Z,8.43
2023-01-07T06:06:07.497Z,8.41
2023-01-07T06:09:12.632Z,8.43
2023-01-07T06:12:17.723Z,8.42
2023-01-07T06:15:21.348Z,8.46
2023-01-07T06:18:25.038Z,8.46
2023-01-07T06:21:29.015Z,8.43
2023-01-07T06:24:32.660Z,8.39
2023-01-07T06:27:37.613Z,8.47
2023-01-07T06:30:41.286Z,8.45
2023-01-07T06:33:45.213Z,8.44
2023-01-07T06:36:48.796Z,8.48
2023-01-07T06:39:52.492Z,8.47
2023-01-07T06:42:57.554Z,8.46
2023-01-07T06:46:01.160Z,8.50
2023-01-07T06:49:05.493Z,8.48
2023-01-07T06:52:09.031Z,8.46
2023-01-07T06:55:13.004Z,8.51
2023-01-07T06:58:18.125Z,8.45
2023-01-07T07:01:22.128Z,8.47
2023-01-07T07:04:25.877Z,8.40
2023-01-07T07:07:29.659Z,8.38
2023-01-07T07:10:33.403Z,8.39
2023-01-07T07:13:38.451Z,8.36
2023-01-07T07:16:42.089Z,8.37
2023-01-07T07:19:45.767Z,8.37
2023-01-07T07:22:50.266Z,8.33
2023-01-07T07:25:53.941Z,8.35
2023-01-07T07:28:58.913Z,8.33
2023-01-07T07:32:03.608Z,8.29
2023-01-07T07:35:08.544Z,8.28
2023-01-07T07:38:12.135Z,8.26
2023-01-07T07:41:15.720Z,8.28
2023-01-07T07:44:20.801Z,8.27
2023-01-07T07:47:24.513Z,8.27
2023-01-07T07:50:28.065Z,8.27
2023-01-07T07:53:31.819Z,8.43
2023-01-07T07:56:35.661Z,8.27
2023-01-07T07:59:40.607Z,8.31
2023-01-07T08:02:44.218Z,8.28
2023-01-07T08:05:47.776Z,8.25
2023-01-07T08:08:51.483Z,8.21
2023-01-07T08:11:55.887Z,8.15
2023-01-07T08:15:00.999Z,8.16
2023-01-07T08:18:08.319Z,8.15
2023-01-07T08:21:11.964Z,8.11
2023-01-07T08:24:15.727Z,8.07
2023-01-07T08:27:19.352Z,8.03
2023-01-07T08:30:25.057Z,8.10
2023-01-07T08:33:29.442Z,8.07
2023-01-07T08:36:33.057Z,8.18
2023-01-07T08:39:37.411Z,8.31
2023-01-07T08:42:41.417Z,8.41
2023-01-07T08:45:53.159Z,8.39
2023-01-07T08:48:56.962Z,8.37
2023-01-07T08:52:00.625Z,8.38
2023-01-07T08:55:04.469Z,8.55
2023-01-07T08:58:08.212Z,8.62
2023-01-07T09:01:13.626Z,8.52
2023-01-07T09:04:17.479Z,8.54
2023-01-07T09:07:21.209Z,8.56
2023-01-07T09:10:27.546Z,8.54
2023-01-07T09:13:31.278Z,8.53
2023-01-07T09:16:36.583Z,8.63
2023-01-07T09:19:40.343Z,8.65
2023-01-07T09:22:44.191Z,8.65
2023-01-07T09:25:47.783Z,8.60
2023-01-07T09:28:51.447Z,8.50
2023-01-07T09:31:56.522Z,8.53
2023-01-07T09:35:01.122Z,8.50
2023-01-07T09:38:05.235Z,8.48
2023-01-07T09:41:30.437Z,8.50
2023-01-07T09:44:54.924Z,8.52
2023-01-07T09:48:06.995Z,8.59
2023-01-07T09:51:25.577Z,8.69
2023-01-07T09:54:35.202Z,8.73
2023-01-07T09:57:39.084Z,8.85
2023-01-07T10:00:58.771Z,8.72
2023-01-07T10:04:34.386Z,8.70
2023-01-07T10:07:48.595Z,8.70
2023-01-07T10:11:05.764Z,8.68
2023-01-07T10:14:45.647Z,8.67
2023-01-07T10:18:10.581Z,8.82
2023-01-07T10:21:23.239Z,8.85
2023-01-07T10:24:32.181Z,8.90
2023-01-07T10:27:40.314Z,8.94
2023-01-07T10:30:51.789Z,8.94
2023-01-07T10:33:58.527Z,8.95
2023-01-07T10:37:08.043Z,8.97
2023-01-07T10:40:35.159Z,8.97
2023-01-07T10:44:08.481Z,9.00
2023-01-07T10:47:28.784Z,9.04
2023-01-07T10:50:53.958Z,9.32
2023-01-07T10:54:15.558Z,9.26
2023-01-07T10:57:22.849Z,9.35
2023-01-07T11:00:27.400Z,9.29
2023-01-07T11:03:31.370Z,9.35
2023-01-07T11:06:42.157Z,9.39
2023-01-07T11:09:49.418Z,9.51
2023-01-07T11:12:58.050Z,9.42
2023-01-07T11:16:10.834Z,9.52
2023-01-07T11:19:15.185Z,9.49
2023-01-07T11:22:33.498Z,9.56
2023-01-07T11:25:38.717Z,9.43
2023-01-07T11:28:53.969Z,9.39
2023-01-07T11:32:02.662Z,9.43
2023-01-07T11:35:22.442Z,9.64
2023-01-07T11:38:32.608Z,9.51
2023-01-07T11:41:37.594Z,9.55
2023-01-07T11:44:41.304Z,9.50
2023-01-07T11:47:57.362Z,9.54
2023-01-07T11:51:04.569Z,9.53
2023-01-07T11:54:22.044Z,9.51
2023-01-07T11:57:30.128Z,9.51
2023-01-07T12:00:35.304Z,9.50
2023-01-07T12:03:43.247Z,9.44
2023-01-07T12:06:50.083Z,9.39
2023-01-07T12:09:53.721Z,9.42
2023-01-07T12:13:01.596Z,9.39
2023-01-07T12:16:08.271Z,9.48
2023-01-07T12:19:31.481Z,9.40
2023-01-07T12:22:50.165Z,9.39
2023-01-07T12:26:09.036Z,9.36
2023-01-07T12:29:32.143Z,9.42
2023-01-07T12:32:52.733Z,9.41
2023-01-07T12:36:03.942Z,9.33
2023-01-07T12:39:20.386Z,9.43
2023-01-07T12:42:30.259Z,9.55
2023-01-07T12:45:49.264Z,9.46
2023-01-07T12:49:06.706Z,9.48
2023-01-07T12:52:20.384Z,9.41
2023-01-07T12:55:29.739Z,9.51
2023-01-07T12:58:49.228Z,9.43
2023-01-07T13:02:07.621Z,9.60
2023-01-07T13:05:18.210Z,9.55
2023-01-07T13:08:39.633Z,9.48
2023-01-07T13:12:05.277Z,9.64
2023-01-07T13:15:27.031Z,9.64
2023-01-07T13:18:32.544Z,9.59
2023-01-07T13:21:37.628Z,9.54
2023-01-07T13:24:58.699Z,9.49
2023-01-07T13:28:45.084Z,9.61
2023-01-07T13:32:24.056Z,9.57
2023-01-07T13:35:58.838Z,9.60
2023-01-07T13:39:43.501Z,9.60
2023-01-07T13:42:53.660Z,9.50
2023-01-07T13:46:02.643Z,9.59
2023-01-07T13:49:07.325Z,9.71
2023-01-07T13:52:20.206Z,9.61
2023-01-07T13:55:42.320Z,9.76
2023-01-07T13:58:48.780Z,9.51
2023-01-07T14:02:22.621Z,9.59
2023-01-07T14:05:28.848Z,9.64
2023-01-07T14:08:33.985Z,9.48
2023-01-07T14:12:04.595Z,9.57
2023-01-07T14:15:41.431Z,9.47
2023-01-07T14:19:08.465Z,9.34
2023-01-07T14:22:27.002Z,9.29
2023-01-07T14:25:50.406Z,9.25
2023-01-07T14:29:42.430Z,9.24
2023-01-07T14:32:46.797Z,9.23
2023-01-07T14:35:58.485Z,9.02
2023-01-07T14:39:02.524Z,9.00
2023-01-07T14:42:43.187Z,8.92
2023-01-07T14:45:56.282Z,8.95
2023-01-07T14:49:39.061Z,8.91
2023-01-07T14:53:36.875Z,8.86
2023-01-07T14:56:58.846Z,8.73
2023-01-07T15:00:53.978Z,8.66
2023-01-07T15:04:38.824Z,8.62
2023-01-07T15:07:48.820Z,8.52
2023-01-07T15:11:12.421Z,8.45
2023-01-07T15:14:46.192Z,8.50
2023-01-07T15:17:51.598Z,8.36
2023-01-07T15:21:19.234Z,8.36
2023-01-07T15:24:39.755Z,8.26
2023-01-07T15:27:52.774Z,8.33
2023-01-07T15:31:07.916Z,8.42
2023-01-07T15:34:15.957Z,8.23
2023-01-07T15:37:20.694Z,8.19
2023-01-07T15:40:27.908Z,8.19
2023-01-07T15:43:32.907Z,8.13
2023-01-07T15:46:42.571Z,8.15
2023-01-07T15:49:47.707Z,8.20
2023-01-07T15:52:54.364Z,8.14
2023-01-07T15:56:03.651Z,8.06
2023-01-07T15:59:10.471Z,8.07
2023-01-07T16:02:25.817Z,8.07
2023-01-07T16:05:32.150Z,8.10
2023-01-07T16:08:36.054Z,8.05
2023-01-07T16:11:39.928Z,8.03
2023-01-07T16:14:43.639Z,8.05
2023-01-07T16:17:52.518Z,7.98
2023-01-07T16:21:03.647Z,7.99
2023-01-07T16:24:08.595Z,8.03
2023-01-07T16:27:12.553Z,8.06
2023-01-07T16:30:18.177Z,8.07
2023-01-07T16:33:27.365Z,8.03
2023-01-07T16:36:39.064Z,8.01
2023-01-07T16:39:47.744Z,8.00
2023-01-07T16:42:52.555Z,7.94
2023-01-07T16:46:19.048Z,7.86
2023-01-07T16:49:29.733Z,7.82
2023-01-07T16:52:35.510Z,7.96
2023-01-07T16:55:51.056Z,7.88
2023-01-07T16:58:56.897Z,7.81
2023-01-07T17:02:12.202Z,7.78
2023-01-07T17:05:19.680Z,7.79
2023-01-07T17:08:24.811Z,7.69
2023-01-07T17:11:36.906Z,7.78
2023-01-07T17:14:50.438Z,7.77
2023-01-07T17:17:54.545Z,7.72
2023-01-07T17:21:00.876Z,7.73
2023-01-07T17:24:06.885Z,7.69
2023-01-07T17:27:27.590Z,7.63
2023-01-07T17:30:37.269Z,7.53
2023-01-07T17:33:41.101Z,7.50
2023-01-07T17:36:45.050Z,7.49
2023-01-07T17:39:51.416Z,7.50
2023-01-07T17:43:14.412Z,7.39
2023-01-07T17:46:18.227Z,7.39
2023-01-07T17:49:22.142Z,7.42
2023-01-07T17:52:26.102Z,7.47
2023-01-07T17:55:35.804Z,7.34
2023-01-07T17:58:41.204Z,7.35
2023-01-07T18:01:45.562Z,7.31
2023-01-07T18:04:49.433Z,7.34
2023-01-07T18:07:54.662Z,7.29
2023-01-07T18:11:23.013Z,7.36
2023-01-07T18:14:27.508Z,7.19
2023-01-07T18:17:31.875Z,7.17
2023-01-07T18:20:35.652Z,7.17
2023-01-07T18:23:39.740Z,7.14
2023-01-07T18:26:45.054Z,7.18
2023-01-07T18:29:48.841Z,7.16
2023-01-07T18:32:53.811Z,7.13
2023-01-07T18:35:58.007Z,6.98
2023-01-07T18:39:01.898Z,7.00
2023-01-07T18:42:07.603Z,6.99
2023-01-07T18:45:12.240Z,7.20
2023-01-07T18:48:18.900Z,7.07
2023-01-07T18:51:22.790Z,7.12
2023-01-07T18:54:26.765Z,6.95
2023-01-07T18:57:31.905Z,7.06
2023-01-07T19:00:36.613Z,7.01
2023-01-07T19:03:41.231Z,6.97
2023-01-07T19:06:45.446Z,6.97
2023-01-07T19:09:49.348Z,7.07
2023-01-07T19:12:54.643Z,7.12
2023-01-07T19:15:58.576Z,7.10
2023-01-07T19:19:02.897Z,7.13
2023-01-07T19:22:06.847Z,7.06
2023-01-07T19:25:11.549Z,7.06
2023-01-07T19:28:16.857Z,7.19
2023-01-07T19:31:21.003Z,7.08
2023-01-07T19:34:25.634Z,7.14
2023-01-07T19:37:29.693Z,7.10
2023-01-07T19:40:33.555Z,7.13
2023-01-07T19:43:39.229Z,7.24
2023-01-07T19:46:44.184Z,7.22
2023-01-07T19:49:48.037Z,7.21
2023-01-07T19:52:51.928Z,7.29
2023-01-07T19:55:59.915Z,7.27
2023-01-07T19:59:05.316Z,7.30
2023-01-07T20:02:09.398Z,7.25
2023-01-07T20:05:14.446Z,7.28
2023-01-07T20:08:18.293Z,7.28
2023-01-07T20:11:22.473Z,7.26
2023-01-07T20:14:27.677Z,7.32
2023-01-07T20:17:31.616Z,7.29
2023-01-07T20:20:35.276Z,7.29
2023-01-07T20:23:41.081Z,7.29
2023-01-07T20:26:44.736Z,7.34
2023-01-07T20:29:50.406Z,7.32
2023-01-07T20:32:54.203Z,7.30
2023-01-07T20:36:01.957Z,7.33
2023-01-07T20:39:06.393Z,7.31
2023-01-07T20:42:10.310Z,7.20
2023-01-07T20:45:15.834Z,7.21
2023-01-07T20:48:19.758Z,7.24
2023-01-07T20:51:24.012Z,7.37
2023-01-07T20:54:27.929Z,7.24
2023-01-07T20:57:32.440Z,7.19
2023-01-07T21:00:40.950Z,7.26
2023-01-07T21:03:46.829Z,7.18
2023-01-07T21:06:50.701Z,7.16
2023-01-07T21:09:54.391Z,7.26
2023-01-07T21:12:58.190Z,7.18
2023-01-07T21:16:06.001Z,7.33
2023-01-07T21:19:09.953Z,7.21
2023-01-07T21:22:13.724Z,7.27
2023-01-07T21:25:17.788Z,7.28
2023-01-07T21:28:21.964Z,7.30
2023-01-07T21:31:28.713Z,7.28
2023-01-07T21:34:32.543Z,7.31
2023-01-07T21:37:36.534Z,7.26
2023-01-07T21:40:40.787Z,7.18
2023-01-07T21:43:45.318Z,7.30
2023-01-07T21:46:50.549Z,7.23
2023-01-07T21:49:54.368Z,7.27
2023-01-07T21:52:57.987Z,7.16
2023-01-07T21:56:07.915Z,7.31
2023-01-07T21:59:11.705Z,7.24
2023-01-07T22:02:21.071Z,7.29
2023-01-07T22:05:27.906Z,7.32
2023-01-07T22:08:31.799Z,7.38
2023-01-07T22:11:38.682Z,7.38
2023-01-07T22:14:42.623Z,7.41
2023-01-07T22:17:47.703Z,7.55
2023-01-07T22:20:57.021Z,7.49
2023-01-07T22:24:00.648Z,7.50
2023-01-07T22:27:04.300Z,7.52
2023-01-07T22:30:10.414Z,7.59
2023-01-07T22:33:15.536Z,7.45
2023-01-07T22:36:27.654Z,7.37
2023-01-07T22:39:37.035Z,7.45
2023-01-07T22:42:51.860Z,7.47
2023-01-07T22:45:59.833Z,7.49
2023-01-07T22:49:04.961Z,7.62
2023-01-07T22:52:09.093Z,7.54
2023-01-07T22:55:14.214Z,7.49
2023-01-07T22:58:19.181Z,7.69
2023-01-07T23:01:22.921Z,7.69
2023-01-07T23:04:28.033Z,7.75
2023-01-07T23:07:31.721Z,7.62
2023-01-07T23:10:36.814Z,7.68
2023-01-07T23:13:40.679Z,7.69
2023-01-07T23:16:44.893Z,7.60
2023-01-07T23:19:49.929Z,7.67
2023-01-07T23:22:53.593Z,7.63
2023-01-07T23:25:57.179Z,7.79
2023-01-07T23:29:00.803Z,7.72
2023-01-07T23:32:06.103Z,7.66
2023-01-07T23:35:11.788Z,7.76
2023-01-07T23:38:15.397Z,7.84
2023-01-07T23:41:19.246Z,7.66
2023-01-07T23:44:23.104Z,7.72
2023-01-07T23:47:26.840Z,7.85
2023-01-07T23:50:31.846Z,7.81
2023-01-07T23:53:35.681Z,7.81
2023-01-07T23:56:39.311Z,7.85
2023-01-07T23:59:43.847Z,8.00
